createdAt,value
2022-10-23T04:01:28.615Z,98614.72
2022-10-23T04:05:42.326Z,98615.50
2022-10-23T04:09:53.871Z,98614.72
2022-10-23T04:14:05.432Z,98617.31
2022-10-23T04:18:17.963Z,98608.53
2022-10-23T04:22:29.560Z,98603.59
2022-10-23T04:26:41.100Z,98595.78
2022-10-23T04:30:55.295Z,98600.84
2022-10-23T04:35:07.652Z,98600.00
2022-10-23T04:39:19.228Z,98596.66
2022-10-23T04:43:31.781Z,98583.78
2022-10-23T04:47:43.471Z,98578.84
2022-10-23T04:51:55.001Z,98575.13
2022-10-23T04:56:15.884Z,98572.88
2022-10-23T05:00:34.457Z,98563.13
2022-10-23T05:04:48.339Z,98569.31
2022-10-23T05:09:35.979Z,98562.28
2022-10-23T05:14:05.417Z,98554.97
2022-10-23T05:18:46.191Z,98552.53
2022-10-23T05:23:00.494Z,98538.34
2022-10-23T05:27:12.835Z,98539.38
2022-10-23T05:31:26.144Z,98537.91
2022-10-23T05:35:46.936Z,98539.38
2022-10-23T05:40:00.938Z,98540.34
2022-10-23T05:44:12.520Z,98540.41
2022-10-23T05:48:40.511Z,98525.44
2022-10-23T05:53:11.469Z,98518.88
2022-10-23T05:57:34.913Z,98516.25
2022-10-23T06:01:50.880Z,98520.22
2022-10-23T06:06:13.972Z,98531.00
2022-10-23T06:10:31.942Z,98514.66
2022-10-23T06:14:47.249Z,98512.84
2022-10-23T06:18:59.698Z,98509.78
2022-10-23T06:23:11.903Z,98508.78
2022-10-23T06:27:52.804Z,98506.94
2022-10-23T06:32:04.633Z,98514.84
2022-10-23T06:36:16.175Z,98517.16
2022-10-23T06:40:28.432Z,98531.09
2022-10-23T06:44:44.258Z,98524.56
2022-10-23T06:48:56.612Z,98528.34
2022-10-23T06:53:12.346Z,98525.34
2022-10-23T06:57:29.684Z,98517.91
2022-10-23T07:01:41.526Z,98528.94
2022-10-23T07:05:55.252Z,98520.03
2022-10-23T07:10:07.276Z,98534.56
2022-10-23T07:14:27.346Z,98525.13
2022-10-23T07:18:39.685Z,98532.53
2022-10-23T07:23:11.802Z,98532.94
2022-10-23T07:27:25.723Z,98516.09
2022-10-23T07:31:42.181Z,98507.88
2022-10-23T07:36:10.002Z,98504.59
2022-10-23T07:40:21.815Z,98520.50
2022-10-23T07:44:36.184Z,98527.25
2022-10-23T07:48:48.080Z,98516.13
2022-10-23T07:53:01.327Z,98514.88
2022-10-23T07:57:23.756Z,98515.34
2022-10-23T08:01:42.902Z,98500.88
2022-10-23T08:05:56.176Z,98490.75
2022-10-23T08:10:08.246Z,98490.75
2022-10-23T08:14:22.373Z,98487.78
2022-10-23T08:18:34.805Z,98496.00
2022-10-23T08:22:46.519Z,98508.84
2022-10-23T08:27:03.690Z,98502.72
2022-10-23T08:31:19.370Z,98499.03
2022-10-23T08:35:50.968Z,98492.50
2022-10-23T08:40:36.563Z,98486.06
2022-10-23T08:45:34.889Z,98481.50
2022-10-23T08:49:59.957Z,98476.97
2022-10-23T08:54:20.416Z,98472.69
2022-10-23T09:03:05.487Z,98469.53
2022-10-23T09:07:35.201Z,98465.56
2022-10-23T09:12:11.468Z,98472.31
2022-10-23T09:16:25.768Z,98462.91
2022-10-23T09:20:37.390Z,98439.81
2022-10-23T09:24:53.604Z,98440.88
2022-10-23T09:29:22.798Z,98444.06
2022-10-23T09:33:37.044Z,98440.53
2022-10-23T09:37:52.987Z,98440.00
2022-10-23T09:42:22.302Z,98429.13
2022-10-23T09:46:47.132Z,98428.75
2022-10-23T09:51:04.244Z,98420.31
2022-10-23T09:55:23.031Z,98425.38
2022-10-23T09:59:34.714Z,98426.38
2022-10-23T10:03:51.129Z,98404.97
2022-10-23T10:08:08.989Z,98381.97
2022-10-23T10:12:37.753Z,98401.41
2022-10-23T10:17:00.855Z,98394.69
2022-10-23T10:21:28.485Z,98418.31
2022-10-23T10:25:58.588Z,98411.41
2022-10-23T10:30:20.834Z,98416.19
2022-10-23T10:34:54.475Z,98396.47
2022-10-23T10:39:17.663Z,98386.75
2022-10-23T10:43:51.947Z,98384.38
2022-10-23T10:48:10.961Z,98393.00
2022-10-23T10:53:20.708Z,98390.53
2022-10-23T10:57:38.252Z,98381.72
2022-10-23T11:02:26.984Z,98364.13
2022-10-23T11:06:41.359Z,98350.50
2022-10-23T11:10:59.037Z,98359.28
2022-10-23T11:15:39.953Z,98349.75
2022-10-23T11:19:59.925Z,98341.00
2022-10-23T11:24:26.213Z,98334.00
2022-10-23T11:28:43.612Z,98328.84
2022-10-23T11:33:23.756Z,98305.13
2022-10-23T11:37:35.299Z,98309.34
2022-10-23T11:41:55.093Z,98297.78
2022-10-23T11:46:21.995Z,98295.81
2022-10-23T11:50:51.177Z,98289.09
2022-10-23T11:55:18.019Z,98279.53
2022-10-23T11:59:32.709Z,98273.97
2022-10-23T12:03:57.922Z,98272.63
2022-10-23T12:08:27.712Z,98263.94
2022-10-23T12:12:40.989Z,98271.94
2022-10-23T12:16:52.671Z,98274.31
2022-10-23T12:21:04.619Z,98266.47
2022-10-23T12:25:38.582Z,98267.72
2022-10-23T12:29:54.704Z,98262.91
2022-10-23T12:34:18.580Z,98251.63
2022-10-23T12:38:33.971Z,98226.47
2022-10-23T12:42:54.425Z,98217.16
2022-10-23T12:47:06.012Z,98212.75
2022-10-23T12:51:24.855Z,98197.19
2022-10-23T12:55:54.093Z,98183.63
2022-10-23T13:00:12.962Z,98184.28
2022-10-23T13:04:34.369Z,98181.41
2022-10-23T13:08:47.792Z,98187.66
2022-10-23T13:13:23.139Z,98184.22
2022-10-23T13:18:01.219Z,98188.06
2022-10-23T13:22:22.653Z,98183.81
2022-10-23T13:26:45.584Z,98159.59
2022-10-23T13:31:01.856Z,98156.34
2022-10-23T13:35:23.345Z,98156.09
2022-10-23T13:39:35.017Z,98144.97
2022-10-23T13:43:48.359Z,98152.19
2022-10-23T13:47:59.890Z,98149.47
2022-10-23T13:52:14.353Z,98141.53
2022-10-23T13:56:27.460Z,98134.38
2022-10-23T14:00:40.069Z,98141.28
2022-10-23T14:04:51.686Z,98145.19
2022-10-23T14:09:05.389Z,98142.31
2022-10-23T14:13:16.911Z,98145.94
2022-10-23T14:17:28.453Z,98146.94
2022-10-23T14:21:40.002Z,98152.25
2022-10-23T14:25:51.524Z,98163.78
2022-10-23T14:30:03.931Z,98159.22
2022-10-23T14:34:15.494Z,98158.72
2022-10-23T14:38:27.668Z,98146.69
2022-10-23T14:42:39.253Z,98151.19
2022-10-23T14:46:50.886Z,98131.28
2022-10-23T14:51:02.433Z,98133.88
2022-10-23T14:55:14.123Z,98132.44
2022-10-23T14:59:25.808Z,98118.16
2022-10-23T15:03:37.318Z,98115.88
2022-10-23T15:07:48.828Z,98106.66
2022-10-23T15:12:00.578Z,98088.41
2022-10-23T15:16:12.321Z,98090.38
2022-10-23T15:20:23.920Z,98082.75
2022-10-23T15:24:35.522Z,98067.25
2022-10-23T15:28:48.158Z,98075.75
2022-10-23T15:32:59.721Z,98073.38
2022-10-23T15:37:11.519Z,98062.94
2022-10-23T15:41:31.642Z,98057.00
2022-10-23T15:45:43.191Z,98053.13
2022-10-23T15:49:54.735Z,98042.13
2022-10-23T15:54:08.452Z,98037.22
2022-10-23T15:58:19.948Z,98043.19
2022-10-23T16:02:31.653Z,98039.88
2022-10-23T16:06:46.381Z,98040.47
2022-10-23T16:10:59.583Z,98039.75
2022-10-23T16:15:11.073Z,98048.25
2022-10-23T16:19:22.680Z,98084.09
2022-10-23T16:23:34.461Z,98078.13
2022-10-23T16:27:46.446Z,98104.19
2022-10-23T16:31:59.767Z,98150.69
2022-10-23T16:36:11.324Z,98151.94
2022-10-23T16:41:03.690Z,98165.22
2022-10-23T16:45:30.145Z,98180.91
2022-10-23T16:49:43.764Z,98177.38
2022-10-23T16:53:55.422Z,98180.44
2022-10-23T16:58:06.956Z,98192.88
2022-10-23T17:02:18.536Z,98213.78
2022-10-23T17:06:32.689Z,98237.63
2022-10-23T17:10:44.183Z,98251.31
2022-10-23T17:14:55.708Z,98242.34
2022-10-23T17:19:21.034Z,98211.69
2022-10-23T17:23:41.642Z,98166.31
2022-10-23T17:27:53.134Z,98151.22
2022-10-23T17:32:04.942Z,98162.22
2022-10-23T17:36:16.502Z,98144.06
2022-10-23T17:40:30.874Z,98143.69
2022-10-23T17:44:42.609Z,98146.19
2022-10-23T17:48:57.148Z,98162.66
2022-10-23T17:53:08.732Z,98173.88
2022-10-23T17:57:20.312Z,98171.88
2022-10-23T18:01:32.358Z,98181.25
2022-10-23T18:05:44.058Z,98187.16
2022-10-23T18:09:55.591Z,98181.09
2022-10-23T18:14:07.541Z,98185.75
2022-10-23T18:18:19.068Z,98202.00
2022-10-23T18:22:33.044Z,98215.16
2022-10-23T18:26:45.106Z,98216.00
2022-10-23T18:30:57.197Z,98218.63
2022-10-23T18:35:09.124Z,98203.91
2022-10-23T18:39:23.686Z,98197.88
2022-10-23T18:43:44.091Z,98196.13
2022-10-23T18:47:55.990Z,98192.03
2022-10-23T18:52:07.518Z,98199.75
2022-10-23T18:56:22.843Z,98188.06
2022-10-23T19:00:34.472Z,98182.41
2022-10-23T19:04:46.202Z,98192.16
2022-10-23T19:08:58.011Z,98198.22
2022-10-23T19:13:09.655Z,98197.63
2022-10-23T19:17:25.784Z,98194.03
2022-10-23T19:21:38.787Z,98206.81
2022-10-23T19:25:51.486Z,98205.22
2022-10-23T19:30:06.362Z,98201.19
2022-10-23T19:34:20.437Z,98193.50
2022-10-23T19:38:32.786Z,98201.22
2022-10-23T19:42:44.636Z,98199.63
2022-10-23T19:46:56.299Z,98202.06
2022-10-23T19:51:08.470Z,98198.22
2022-10-23T19:55:20.140Z,98207.28
2022-10-23T19:59:31.685Z,98205.88
2022-10-23T20:03:45.482Z,98205.31
2022-10-23T20:07:57.501Z,98208.94
2022-10-23T20:12:09.034Z,98213.22
2022-10-23T20:16:29.895Z,98225.53
2022-10-23T20:20:42.364Z,98222.28
2022-10-23T20:24:53.923Z,98226.69
2022-10-23T20:29:05.594Z,98221.75
2022-10-23T20:33:17.097Z,98238.53
2022-10-23T20:37:28.598Z,98240.34
2022-10-23T20:41:41.871Z,98251.25
2022-10-23T20:45:53.368Z,98254.56
2022-10-23T20:50:05.230Z,98264.28
2022-10-23T20:54:16.745Z,98272.84
2022-10-23T20:58:28.245Z,98267.03
2022-10-23T21:02:39.832Z,98272.91
2022-10-23T21:07:08.829Z,98274.34
2022-10-23T21:11:20.738Z,98274.16
2022-10-23T21:15:32.236Z,98270.69
2022-10-23T21:19:43.875Z,98273.38
2022-10-23T21:23:59.364Z,98283.13
2022-10-23T21:28:11.053Z,98288.16
